Time;durP1;ratioP1;P1;durP2;ratioP2;P2;SDS_P1;SDS_P2;PMS_P1;PMS_P2;Temp;Humidity;BMP_temperature;BMP_pressure;BME280_temperature;BME280_humidity;BME280_pressure;Samples;Min_cycle;Max_cycle;Signal;HPM_P1;HPM_P2
2023/10/20 00:02:22;;;;;;;32.58;19.30;;;15.40;99.90;;;;;;6270970;22;20003;-82
2023/10/20 00:04:48;;;;;;;23.48;19.60;;;15.40;99.90;;;;;;6271520;22;20076;-82
2023/10/20 00:07:13;;;;;;;22.88;18.55;;;15.40;99.90;;;;;;6270502;22;20011;-82
2023/10/20 00:09:39;;;;;;;24.25;19.25;;;15.40;99.90;;;;;;6271684;22;20016;-81
2023/10/20 00:12:05;;;;;;;25.92;19.52;;;15.40;99.90;;;;;;6271548;22;20071;-82
2023/10/20 00:14:33;;;;;;;28.33;21.20;;;15.40;99.90;;;;;;6271039;22;20281;-81
2023/10/20 00:16:58;;;;;;;24.33;18.70;;;15.40;99.90;;;;;;6271702;22;20075;-82
2023/10/20 00:19:24;;;;;;;24.08;21.23;;;15.30;99.90;;;;;;6271032;22;20031;-83
2023/10/20 00:21:51;;;;;;;24.42;20.85;;;15.40;99.90;;;;;;6271291;22;19996;-79
2023/10/20 00:24:17;;;;;;;23.75;20.40;;;15.40;99.90;;;;;;6243813;22;20329;-83
2023/10/20 00:26:43;;;;;;;27.20;21.45;;;15.30;99.90;;;;;;6271703;22;19998;-80
2023/10/20 00:29:09;;;;;;;27.35;21.83;;;15.30;99.90;;;;;;6270931;22;20006;-80
2023/10/20 00:31:34;;;;;;;27.17;23.17;;;15.30;99.90;;;;;;6271958;22;20000;-83
2023/10/20 00:34:00;;;;;;;27.88;22.70;;;15.30;99.90;;;;;;6246881;22;20004;-82
2023/10/20 00:36:27;;;;;;;28.98;23.17;;;15.30;99.90;;;;;;6272220;22;20000;-82
2023/10/20 00:38:53;;;;;;;28.38;25.48;;;15.30;99.90;;;;;;6273380;22;20065;-81
2023/10/20 00:41:18;;;;;;;30.10;25.85;;;15.30;99.90;;;;;;6270836;22;20487;-82
2023/10/20 00:43:44;;;;;;;27.48;24.63;;;15.30;99.90;;;;;;6244404;22;20007;-83
2023/10/20 00:46:10;;;;;;;30.10;25.50;;;15.30;99.90;;;;;;6271533;22;20000;-82
2023/10/20 00:48:37;;;;;;;39.28;27.65;;;15.30;99.90;;;;;;6244278;22;20014;-81
2023/10/20 00:51:05;;;;;;;31.10;27.25;;;15.30;99.90;;;;;;6270670;22;20118;-82
2023/10/20 00:53:35;;;;;;;30.30;27.13;;;15.30;99.90;;;;;;6271177;22;20007;-82
2023/10/20 00:56:04;;;;;;;28.02;25.10;;;15.30;99.90;;;;;;6271675;22;20301;-83
2023/10/20 00:58:30;;;;;;;28.75;25.80;;;15.30;99.90;;;;;;6270912;22;20061;-83
2023/10/20 01:00:55;;;;;;;28.13;25.23;;;15.30;99.90;;;;;;6271590;22;20050;-83
2023/10/20 01:03:22;;;;;;;28.20;25.23;;;15.30;99.90;;;;;;6271229;22;20368;-86
2023/10/20 01:05:48;;;;;;;32.92;27.20;;;15.30;99.90;;;;;;6244053;22;20053;-81
2023/10/20 01:08:14;;;;;;;28.05;24.27;;;15.30;99.90;;;;;;6271229;22;20087;-82
2023/10/20 01:10:39;;;;;;;31.55;28.17;;;15.30;99.90;;;;;;6271404;22;20000;-82
2023/10/20 01:13:06;;;;;;;34.25;27.75;;;15.30;99.90;;;;;;6271115;22;20007;-83
2023/10/20 01:15:32;;;;;;;32.65;29.23;;;15.10;99.90;;;;;;6244759;22;20008;-84
2023/10/20 01:17:58;;;;;;;31.17;27.88;;;15.20;99.90;;;;;;6273348;22;20083;-84
2023/10/20 01:20:23;;;;;;;33.95;30.48;;;15.20;99.90;;;;;;6272221;22;20028;-82
2023/10/20 01:22:49;;;;;;;30.98;27.90;;;15.10;99.90;;;;;;6273959;22;20010;-83
2023/10/20 01:25:15;;;;;;;35.00;29.60;;;15.10;99.90;;;;;;6273212;22;20425;-82
2023/10/20 01:27:40;;;;;;;29.17;26.15;;;15.10;99.90;;;;;;6273515;22;20000;-82
2023/10/20 01:30:06;;;;;;;34.60;29.33;;;15.10;99.90;;;;;;6273740;22;20008;-83
2023/10/20 01:32:32;;;;;;;33.60;29.65;;;15.10;99.90;;;;;;6272961;22;19992;-81
2023/10/20 01:34:58;;;;;;;38.20;32.05;;;15.10;99.90;;;;;;6273212;22;20075;-83
2023/10/20 01:37:23;;;;;;;34.85;29.38;;;15.10;99.90;;;;;;6272751;22;20008;-78
2023/10/20 01:39:50;;;;;;;37.58;30.25;;;15.00;99.90;;;;;;6273976;22;20075;-83
2023/10/20 01:42:15;;;;;;;34.20;28.70;;;15.00;99.90;;;;;;6273686;22;20000;-83
2023/10/20 01:44:41;;;;;;;35.40;31.17;;;15.00;99.90;;;;;;6273189;22;20010;-83
2023/10/20 01:47:06;;;;;;;35.75;31.85;;;14.90;99.90;;;;;;6273526;22;20038;-82
2023/10/20 01:49:32;;;;;;;35.58;31.58;;;15.00;99.90;;;;;;6272824;22;20015;-82
2023/10/20 01:51:58;;;;;;;35.60;31.73;;;14.90;99.90;;;;;;6273467;22;20006;-81
2023/10/20 01:54:24;;;;;;;39.28;30.73;;;14.90;99.90;;;;;;6272933;22;20000;-84
2023/10/20 01:56:50;;;;;;;38.42;32.08;;;14.90;99.90;;;;;;6273526;22;20366;-83
2023/10/20 01:59:15;;;;;;;34.28;28.13;;;14.90;99.90;;;;;;6273479;22;19995;-84
2023/10/20 02:01:42;;;;;;;40.20;31.38;;;14.80;99.90;;;;;;6272826;22;20007;-82
2023/10/20 02:04:07;;;;;;;43.72;33.20;;;14.80;99.90;;;;;;6273052;22;20000;-83
2023/10/20 02:06:34;;;;;;;35.90;28.60;;;14.90;99.90;;;;;;6272829;22;20034;-83
2023/10/20 02:08:59;;;;;;;42.22;33.08;;;14.80;99.90;;;;;;6273739;22;20004;-80
2023/10/20 02:11:25;;;;;;;42.25;31.65;;;14.80;99.90;;;;;;6272876;22;20077;-83
2023/10/20 02:13:51;;;;;;;39.63;32.50;;;14.80;99.90;;;;;;6273192;22;20421;-82
2023/10/20 02:16:17;;;;;;;38.75;33.92;;;14.70;99.90;;;;;;6246238;22;20373;-83
2023/10/20 02:18:42;;;;;;;37.03;31.25;;;14.80;99.90;;;;;;6272313;22;20030;-84
2023/10/20 02:21:09;;;;;;;44.78;34.50;;;14.70;99.90;;;;;;6273675;22;20004;-82
2023/10/20 02:23:36;;;;;;;42.75;32.63;;;14.70;99.90;;;;;;6273389;22;19999;-83
2023/10/20 02:26:06;;;;;;;37.58;30.73;;;14.70;99.90;;;;;;6272849;22;20000;-83
2023/10/20 02:28:33;;;;;;;43.85;32.38;;;14.70;99.90;;;;;;6244328;22;20015;-83
2023/10/20 02:31:00;;;;;;;41.17;33.50;;;14.60;99.90;;;;;;6271366;22;20008;-81
2023/10/20 02:33:25;;;;;;;40.10;31.65;;;14.70;99.90;;;;;;6272607;22;20000;-82
2023/10/20 02:35:52;;;;;;;41.63;33.80;;;14.60;99.90;;;;;;6271716;22;20010;-83
2023/10/20 02:38:21;;;;;;;42.08;32.05;;;14.70;99.90;;;;;;6272289;22;20073;-82
2023/10/20 02:40:54;;;;;;;42.05;34.08;;;14.60;99.90;;;;;;6272588;22;20042;-83
2023/10/20 02:43:21;;;;;;;41.47;34.35;;;14.60;99.90;;;;;;6273135;22;20087;-83
2023/10/20 02:45:54;;;;;;;42.47;35.50;;;14.70;99.90;;;;;;6271615;22;20000;-83
2023/10/20 02:48:20;;;;;;;46.58;34.50;;;14.60;99.90;;;;;;6272729;22;20464;-82
2023/10/20 02:50:46;;;;;;;45.83;34.88;;;14.50;99.90;;;;;;6272377;22;20000;-81
2023/10/20 02:53:15;;;;;;;49.88;35.50;;;14.50;99.90;;;;;;6272860;22;20003;-81
2023/10/20 02:55:42;;;;;;;48.25;37.70;;;14.50;99.90;;;;;;6272571;22;20000;-82
2023/10/20 02:58:12;;;;;;;46.83;35.22;;;14.40;99.90;;;;;;6272588;22;20434;-83
2023/10/20 03:00:45;;;;;;;48.10;34.53;;;14.40;99.90;;;;;;6272064;22;20087;-81
2023/10/20 03:03:11;;;;;;;49.72;34.80;;;14.40;99.90;;;;;;6273010;22;20004;-83
2023/10/20 03:05:43;;;;;;;49.47;34.13;;;14.40;99.90;;;;;;6272411;22;20007;-83
2023/10/20 03:08:09;;;;;;;51.47;36.33;;;14.40;99.90;;;;;;6245824;22;20023;-82
2023/10/20 03:10:35;;;;;;;59.45;37.55;;;14.30;99.90;;;;;;6272351;22;20004;-82
2023/10/20 03:13:01;;;;;;;59.17;38.53;;;14.30;99.90;;;;;;6245586;22;20613;-80
2023/10/20 03:15:27;;;;;;;47.05;33.03;;;14.20;99.90;;;;;;6272331;22;20003;-82
2023/10/20 03:17:53;;;;;;;58.50;35.20;;;14.20;99.90;;;;;;6272619;22;20015;-82
2023/10/20 03:20:24;;;;;;;53.88;35.03;;;14.20;99.90;;;;;;6245557;22;20428;-83
2023/10/20 03:22:51;;;;;;;59.53;39.53;;;14.10;99.90;;;;;;6272223;22;20023;-82
2023/10/20 03:25:18;;;;;;;49.97;36.15;;;14.10;99.90;;;;;;6272756;22;20443;-82
2023/10/20 03:27:44;;;;;;;59.92;37.60;;;14.00;99.90;;;;;;6272210;22;20007;-84
2023/10/20 03:30:10;;;;;;;54.53;34.63;;;14.00;99.90;;;;;;6244938;22;20060;-84
2023/10/20 03:32:35;;;;;;;60.47;36.67;;;13.90;99.90;;;;;;6272214;22;20003;-83
2023/10/20 03:35:01;;;;;;;58.30;36.17;;;13.90;99.90;;;;;;6272722;22;20004;-83
2023/10/20 03:37:27;;;;;;;58.85;36.20;;;13.90;99.90;;;;;;6244903;22;20002;-82
2023/10/20 03:39:53;;;;;;;62.58;35.70;;;13.90;99.90;;;;;;6245740;22;20012;-80
2023/10/20 03:42:19;;;;;;;56.92;36.28;;;13.80;99.90;;;;;;6272404;22;20010;-83
2023/10/20 03:44:47;;;;;;;56.65;34.80;;;13.80;99.90;;;;;;6244465;22;20007;-83
2023/10/20 03:47:14;;;;;;;64.75;37.20;;;13.70;99.90;;;;;;6272350;22;20174;-83
2023/10/20 03:49:39;;;;;;;59.95;37.05;;;13.70;99.90;;;;;;6271994;22;20015;-83
2023/10/20 03:52:11;;;;;;;52.88;34.05;;;13.70;99.90;;;;;;6272292;22;19996;-84
2023/10/20 03:54:38;;;;;;;64.70;37.05;;;13.70;99.90;;;;;;6272237;22;20074;-82
2023/10/20 03:57:04;;;;;;;55.67;36.83;;;13.70;99.90;;;;;;6272253;22;20038;-82
2023/10/20 03:59:30;;;;;;;65.13;37.25;;;13.70;99.90;;;;;;6271685;22;19999;-84
2023/10/20 04:01:56;;;;;;;61.67;34.75;;;13.60;99.90;;;;;;6272334;22;20000;-84
2023/10/20 04:04:22;;;;;;;62.03;36.58;;;13.60;99.90;;;;;;6272410;22;20057;-83
2023/10/20 04:06:49;;;;;;;62.13;36.15;;;13.50;99.90;;;;;;6271776;22;20049;-82
2023/10/20 04:09:17;;;;;;;57.97;34.72;;;13.50;99.90;;;;;;6272189;22;20422;-83
2023/10/20 04:11:44;;;;;;;57.25;32.88;;;13.50;99.90;;;;;;6271710;22;20007;-83
2023/10/20 04:14:10;;;;;;;63.17;37.22;;;13.50;99.90;;;;;;6271462;22;19996;-83
2023/10/20 04:16:39;;;;;;;64.57;38.38;;;13.40;99.90;;;;;;6271681;22;19996;-83
2023/10/20 04:19:07;;;;;;;61.35;37.28;;;13.50;99.90;;;;;;6272166;22;20473;-83
2023/10/20 04:21:32;;;;;;;58.65;36.60;;;13.50;99.90;;;;;;6271995;22;20409;-79
2023/10/20 04:23:59;;;;;;;53.85;34.05;;;13.40;99.90;;;;;;6272378;22;20049;-84
2023/10/20 04:26:24;;;;;;;53.67;33.03;;;13.40;99.90;;;;;;6271911;22;20307;-77
2023/10/20 04:53:42;;;;;;;56.03;34.10;;;13.20;99.90;;;;;;6275593;22;19925;-83
2023/10/20 05:01:26;;;;;;;52.15;32.20;;;13.10;99.90;;;;;;6284469;22;20439;-82
2023/10/20 05:03:58;;;;;;;52.92;34.15;;;13.10;99.90;;;;;;6271323;22;20085;-84
2023/10/20 05:06:31;;;;;;;56.60;35.28;;;13.10;99.90;;;;;;6271614;22;20449;-81
2023/10/20 05:08:57;;;;;;;;;;;13.10;99.90;;;;;;6271613;22;20006;-82
2023/10/20 05:11:24;;;;;;;49.72;30.08;;;13.10;99.90;;;;;;6271234;22;19907;-84
2023/10/20 05:13:50;;;;;;;44.47;29.40;;;13.00;99.90;;;;;;6273658;22;19995;-85
2023/10/20 05:16:16;;;;;;;44.28;28.35;;;13.00;99.90;;;;;;6273685;22;20006;-84
2023/10/20 05:18:42;;;;;;;43.00;27.73;;;13.00;99.90;;;;;;6273400;22;20004;-84
2023/10/20 05:21:08;;;;;;;38.78;24.48;;;13.10;99.90;;;;;;6273934;22;20007;-84
2023/10/20 05:23:34;;;;;;;41.30;27.05;;;13.00;99.90;;;;;;6273954;22;20007;-83
2023/10/20 05:26:00;;;;;;;41.10;27.52;;;13.00;99.90;;;;;;6273313;22;20029;-83
2023/10/20 05:28:26;;;;;;;31.27;24.27;;;13.00;99.90;;;;;;6274096;22;20000;-83
2023/10/20 05:30:52;;;;;;;38.80;25.08;;;13.10;99.90;;;;;;6273018;22;20014;-85
2023/10/20 05:33:17;;;;;;;34.70;23.60;;;13.00;99.90;;;;;;6274021;22;20023;-83
2023/10/20 05:35:43;;;;;;;38.92;24.83;;;13.00;99.90;;;;;;6273004;22;20011;-82
2023/10/20 05:38:09;;;;;;;33.85;23.27;;;13.00;99.90;;;;;;6273582;22;20038;-83
2023/10/20 05:40:36;;;;;;;28.95;21.67;;;12.90;99.90;;;;;;6273095;22;20000;-82
2023/10/20 05:43:05;;;;;;;29.13;21.10;;;13.00;99.90;;;;;;6246545;22;20554;-84
2023/10/20 05:45:36;;;;;;;28.58;20.88;;;12.90;99.90;;;;;;6273895;22;20071;-83
2023/10/20 05:48:02;;;;;;;30.00;20.63;;;12.90;99.90;;;;;;6273463;22;20069;-82
2023/10/20 05:50:27;;;;;;;24.80;18.50;;;12.90;99.90;;;;;;6273670;22;20003;-84
2023/10/20 05:52:53;;;;;;;26.38;19.35;;;12.90;99.90;;;;;;6273029;22;20006;-84
2023/10/20 05:55:18;;;;;;;24.30;17.88;;;12.90;99.90;;;;;;6273164;22;19996;-84
2023/10/20 05:57:45;;;;;;;23.77;16.58;;;12.90;99.90;;;;;;6272921;22;20419;-84
2023/10/20 06:00:13;;;;;;;23.20;17.10;;;12.80;99.90;;;;;;6273351;22;20027;-83
2023/10/20 06:02:40;;;;;;;23.38;16.27;;;12.80;99.90;;;;;;6272722;22;20007;-79
2023/10/20 06:05:07;;;;;;;20.00;14.32;;;12.80;99.90;;;;;;6273127;22;20077;-83
2023/10/20 06:07:32;;;;;;;24.48;16.48;;;12.80;99.90;;;;;;6273592;22;20497;-81
2023/10/20 06:09:58;;;;;;;19.30;14.32;;;12.80;99.90;;;;;;6272569;22;20035;-83
2023/10/20 06:12:24;;;;;;;20.27;15.80;;;12.80;99.90;;;;;;6273483;22;20000;-83
2023/10/20 06:14:49;;;;;;;21.50;14.90;;;12.80;99.90;;;;;;6245703;22;20000;-81
2023/10/20 06:17:17;;;;;;;18.73;15.30;;;12.70;99.90;;;;;;6273518;22;20003;-83
2023/10/20 06:19:44;;;;;;;24.50;17.00;;;12.70;99.90;;;;;;6272636;22;20134;-82
2023/10/20 06:22:10;;;;;;;24.33;17.85;;;12.70;99.90;;;;;;6246268;22;20010;-83
2023/10/20 06:24:35;;;;;;;21.67;15.35;;;12.70;99.90;;;;;;6272901;22;20074;-78
2023/10/20 06:27:03;;;;;;;23.08;16.83;;;12.70;99.90;;;;;;6272870;22;20094;-84
2023/10/20 06:31:58;;;;;;;25.10;19.13;;;12.60;99.90;;;;;;6273409;22;20061;-83
2023/10/20 06:34:24;;;;;;;26.35;19.50;;;12.60;99.90;;;;;;6272988;22;20004;-83
2023/10/20 06:37:07;;;;;;;33.45;21.23;;;12.60;99.90;;;;;;6245675;22;20008;-83
2023/10/20 06:39:32;;;;;;;38.35;23.52;;;12.60;99.90;;;;;;6272571;22;20019;-84
2023/10/20 06:41:58;;;;;;;33.72;23.00;;;12.50;99.90;;;;;;6272429;22;20323;-78
2023/10/20 06:44:24;;;;;;;34.83;23.98;;;12.50;99.90;;;;;;6273142;22;20499;-84
2023/10/20 06:46:51;;;;;;;37.13;25.08;;;12.50;99.90;;;;;;6272778;22;20027;-83
2023/10/20 06:49:18;;;;;;;40.20;26.13;;;12.40;99.90;;;;;;6245457;22;20008;-83
2023/10/20 06:51:46;;;;;;;42.03;24.75;;;12.50;99.90;;;;;;6272652;22;20003;-84
2023/10/20 06:54:12;;;;;;;47.60;26.02;;;12.50;99.90;;;;;;6272327;22;20057;-84
2023/10/20 06:56:38;;;;;;;38.70;22.08;;;12.50;99.90;;;;;;6272491;22;20436;-75
2023/10/20 06:59:03;;;;;;;41.70;24.85;;;12.40;99.90;;;;;;6271505;22;20049;-75
2023/10/20 07:01:32;;;;;;;38.88;22.90;;;12.40;99.90;;;;;;6272662;22;20004;-75
2023/10/20 07:03:58;;;;;;;41.42;24.25;;;12.40;99.90;;;;;;6271216;22;20030;-75
2023/10/20 07:06:24;;;;;;;36.67;22.95;;;12.40;99.90;;;;;;6272011;22;20472;-75
2023/10/20 07:08:50;;;;;;;34.78;22.58;;;12.40;99.90;;;;;;6272611;22;20003;-75
2023/10/20 07:11:16;;;;;;;30.65;19.10;;;12.40;99.90;;;;;;6272066;22;20000;-75
2023/10/20 07:13:44;;;;;;;30.85;19.98;;;12.40;99.90;;;;;;6272116;22;20026;-75
2023/10/20 07:16:11;;;;;;;34.47;21.77;;;12.40;99.90;;;;;;6272160;22;20509;-75
2023/10/20 07:18:38;;;;;;;26.55;18.95;;;12.40;99.90;;;;;;6272478;22;20169;-75
2023/10/20 07:21:03;;;;;;;30.90;20.25;;;12.40;99.90;;;;;;6271252;22;19995;-75
2023/10/20 07:23:29;;;;;;;28.98;19.33;;;12.40;99.90;;;;;;6272762;22;20014;-75
2023/10/20 07:25:55;;;;;;;29.48;17.70;;;12.30;99.90;;;;;;6272066;22;20421;-76
2023/10/20 07:28:21;;;;;;;26.50;18.17;;;12.30;99.90;;;;;;6245080;22;20082;-75
2023/10/20 07:30:47;;;;;;;23.23;15.82;;;12.30;99.90;;;;;;6272032;22;20452;-75
2023/10/20 07:33:12;;;;;;;26.88;16.67;;;12.30;99.90;;;;;;6272059;22;19999;-75
2023/10/20 07:35:38;;;;;;;25.63;16.50;;;12.30;99.90;;;;;;6271707;22;20325;-75
2023/10/20 07:38:04;;;;;;;22.10;14.27;;;12.20;99.90;;;;;;6271878;22;20077;-75
2023/10/20 07:40:34;;;;;;;21.92;14.48;;;12.20;99.90;;;;;;6272409;22;20429;-75
2023/10/20 07:43:00;;;;;;;24.40;15.35;;;12.20;99.90;;;;;;6245318;22;19996;-75
2023/10/20 07:45:26;;;;;;;20.17;13.18;;;12.20;99.90;;;;;;6272122;22;20500;-75
2023/10/20 07:47:52;;;;;;;20.60;13.57;;;12.10;99.90;;;;;;6272117;22;20038;-75
2023/10/20 07:50:17;;;;;;;18.83;12.27;;;12.10;99.90;;;;;;6271545;22;20435;-75
2023/10/20 07:52:43;;;;;;;21.48;13.55;;;12.10;99.90;;;;;;6271982;22;19991;-75
2023/10/20 07:55:09;;;;;;;16.75;12.18;;;12.10;99.90;;;;;;6244888;22;20023;-74
2023/10/20 07:57:35;;;;;;;17.73;12.27;;;12.00;99.90;;;;;;6272218;22;19995;-74
2023/10/20 08:00:01;;;;;;;17.10;11.02;;;12.00;99.90;;;;;;6269833;22;20007;-74
2023/10/20 08:02:27;;;;;;;18.55;11.20;;;12.00;99.90;;;;;;6269491;22;20091;-74
2023/10/20 08:04:52;;;;;;;15.30;10.23;;;12.00;99.90;;;;;;6270816;22;20003;-74
2023/10/20 08:07:18;;;;;;;17.23;10.85;;;12.00;99.90;;;;;;6271820;22;20024;-74
2023/10/20 08:09:43;;;;;;;13.85;10.27;;;12.00;99.90;;;;;;6244765;22;20008;-75
2023/10/20 08:12:09;;;;;;;12.45;9.13;;;12.00;99.90;;;;;;6271823;22;20003;-74
2023/10/20 08:14:35;;;;;;;13.32;10.32;;;11.90;99.90;;;;;;6272020;22;19996;-74
2023/10/20 08:17:03;;;;;;;13.90;9.60;;;11.90;99.90;;;;;;6272237;22;19999;-74
2023/10/20 08:19:30;;;;;;;12.20;8.30;;;12.00;99.90;;;;;;6244213;22;20035;-74
2023/10/20 08:21:55;;;;;;;11.05;7.90;;;12.00;99.90;;;;;;6271810;22;19999;-74
2023/10/20 08:24:21;;;;;;;12.32;8.73;;;12.00;99.90;;;;;;6271352;22;20075;-74
2023/10/20 08:26:47;;;;;;;10.85;8.32;;;12.00;99.90;;;;;;6272521;22;20087;-74
2023/10/20 08:29:12;;;;;;;10.02;7.68;;;11.90;99.90;;;;;;6271470;22;20000;-74
2023/10/20 08:31:39;;;;;;;8.93;7.35;;;11.90;99.90;;;;;;6271793;22;20018;-73
2023/10/20 08:34:05;;;;;;;11.13;7.78;;;11.90;99.90;;;;;;6270950;22;19996;-74
2023/10/20 08:36:31;;;;;;;8.68;5.75;;;11.90;99.90;;;;;;6272343;22;20007;-74
2023/10/20 08:39:01;;;;;;;9.00;6.70;;;11.90;99.90;;;;;;6271302;22;20087;-74
2023/10/20 08:41:26;;;;;;;8.90;6.50;;;11.80;99.90;;;;;;6271740;22;19999;-74
2023/10/20 08:43:52;;;;;;;7.00;5.68;;;11.80;99.90;;;;;;6271208;22;20011;-74
2023/10/20 08:46:18;;;;;;;6.63;5.72;;;11.80;99.90;;;;;;6271601;22;20015;-74
2023/10/20 08:48:45;;;;;;;6.43;4.97;;;11.80;99.90;;;;;;6271005;22;20007;-74
2023/10/20 08:51:13;;;;;;;5.68;4.55;;;11.80;99.90;;;;;;6271504;22;20008;-74
2023/10/20 08:53:39;;;;;;;5.40;4.82;;;11.80;99.90;;;;;;6271730;22;20003;-74
2023/10/20 08:56:06;;;;;;;6.43;5.32;;;11.80;99.90;;;;;;6271728;22;20024;-74
2023/10/20 08:58:33;;;;;;;5.90;4.45;;;11.80;99.90;;;;;;6271692;22;20008;-74
2023/10/20 09:00:59;;;;;;;6.15;4.47;;;11.70;99.90;;;;;;6271795;22;20083;-74
2023/10/20 09:03:38;;;;;;;8.32;4.50;;;11.70;99.90;;;;;;6270504;22;20330;-74
2023/10/20 09:06:05;;;;;;;8.70;4.57;;;11.70;99.90;;;;;;6271502;22;20329;-74
2023/10/20 09:08:31;;;;;;;5.60;4.07;;;11.60;99.90;;;;;;6271619;22;19996;-74
2023/10/20 09:10:57;;;;;;;4.13;3.63;;;11.70;99.90;;;;;;6272088;22;20294;-74
2023/10/20 09:13:34;;;;;;;5.03;3.70;;;11.60;99.90;;;;;;6271447;22;20361;-74
2023/10/20 09:16:07;;;;;;;5.90;4.22;;;11.60;99.90;;;;;;6271851;22;20000;-74
2023/10/20 09:18:45;;;;;;;5.28;4.05;;;11.50;99.90;;;;;;6271396;22;19999;-74
2023/10/20 09:21:15;;;;;;;4.65;3.90;;;11.50;99.90;;;;;;6244139;22;20073;-73
2023/10/20 09:23:55;;;;;;;4.70;2.83;;;11.50;99.90;;;;;;6271259;22;19995;-74
2023/10/20 09:26:22;;;;;;;4.82;3.22;;;11.50;99.90;;;;;;6271611;22;20313;-74
2023/10/20 09:28:49;;;;;;;4.43;3.63;;;11.50;99.90;;;;;;6271366;22;20003;-74
2023/10/20 09:31:18;;;;;;;5.35;3.60;;;11.50;99.90;;;;;;6271080;22;20007;-74
2023/10/20 09:33:44;;;;;;;3.85;2.70;;;11.50;99.90;;;;;;6271617;22;20111;-74
2023/10/20 09:36:13;;;;;;;5.60;3.00;;;11.50;99.90;;;;;;6244500;22;20026;-74
2023/10/20 09:38:39;;;;;;;4.57;2.85;;;11.40;99.90;;;;;;6272079;22;20016;-74
2023/10/20 09:41:11;;;;;;;5.55;3.47;;;11.50;99.90;;;;;;6273169;22;20004;-74
2023/10/20 09:43:46;;;;;;;3.53;2.50;;;11.40;99.90;;;;;;6273464;22;20075;-74
2023/10/20 09:46:43;;;;;;;3.47;2.90;;;11.40;99.90;;;;;;6272827;22;20026;-74
2023/10/20 09:49:19;;;;;;;2.92;2.53;;;11.40;99.90;;;;;;6273262;22;20329;-74
2023/10/20 09:51:46;;;;;;;4.60;2.92;;;11.40;99.90;;;;;;6273361;22;20467;-74
2023/10/20 09:54:18;;;;;;;2.80;2.03;;;11.40;99.90;;;;;;6245970;22;20086;-74
2023/10/20 09:56:45;;;;;;;3.17;1.88;;;11.40;99.90;;;;;;6273094;22;20008;-74
2023/10/20 09:59:18;;;;;;;2.00;1.80;;;11.40;99.90;;;;;;6273325;22;19999;-73
2023/10/20 10:01:44;;;;;;;2.63;2.17;;;11.40;99.90;;;;;;6272284;22;20060;-74
2023/10/20 10:04:10;;;;;;;4.07;2.10;;;11.40;99.90;;;;;;6272734;22;20038;-74
2023/10/20 10:06:36;;;;;;;2.95;2.45;;;11.40;99.90;;;;;;6246018;22;20333;-74
2023/10/20 10:09:06;;;;;;;3.05;2.22;;;11.50;99.90;;;;;;6272955;22;20008;-75
2023/10/20 10:11:40;;;;;;;2.78;1.98;;;11.40;99.90;;;;;;6273251;22;20026;-74
2023/10/20 10:14:05;;;;;;;2.28;1.70;;;11.50;99.90;;;;;;6272536;22;20008;-75
2023/10/20 10:16:32;;;;;;;2.65;1.70;;;11.40;99.90;;;;;;6272489;22;20427;-74
2023/10/20 10:19:10;;;;;;;2.47;2.03;;;11.50;99.90;;;;;;6273022;22;20098;-75
2023/10/20 10:21:42;;;;;;;3.83;1.95;;;11.50;99.90;;;;;;6273029;22;20004;-74
2023/10/20 10:24:16;;;;;;;2.22;1.63;;;11.50;99.90;;;;;;6272676;22;20049;-75
2023/10/20 10:26:57;;;;;;;2.20;1.50;;;11.50;99.90;;;;;;6272896;22;20307;-75
2023/10/20 10:29:45;;;;;;;2.88;2.13;;;11.50;99.90;;;;;;6271235;22;19996;-74
2023/10/20 10:32:13;;;;;;;2.17;1.65;;;11.60;99.90;;;;;;6244832;22;20330;-75
2023/10/20 10:34:42;;;;;;;1.98;1.63;;;11.60;99.90;;;;;;6272840;22;20000;-75
2023/10/20 10:37:08;;;;;;;1.77;1.52;;;11.60;99.90;;;;;;6272489;22;20162;-75
2023/10/20 10:39:34;;;;;;;2.15;1.65;;;11.60;99.90;;;;;;6272653;22;20067;-75
2023/10/20 10:42:03;;;;;;;2.45;1.77;;;11.60;99.90;;;;;;6272909;22;20038;-75
2023/10/20 10:44:36;;;;;;;1.60;1.50;;;11.70;99.90;;;;;;6272555;22;20004;-74
2023/10/20 10:47:05;;;;;;;2.35;1.85;;;11.60;99.90;;;;;;6272390;22;20004;-75
2023/10/20 10:49:32;;;;;;;1.65;1.50;;;11.70;99.90;;;;;;6245903;22;19996;-74
2023/10/20 10:52:03;;;;;;;2.53;1.40;;;11.70;99.90;;;;;;6272012;22;20027;-75
2023/10/20 10:54:33;;;;;;;2.00;1.60;;;11.70;99.90;;;;;;6273089;22;20074;-74
2023/10/20 10:57:03;;;;;;;2.67;1.92;;;11.70;99.90;;;;;;6272778;22;20429;-75
2023/10/20 10:59:30;;;;;;;1.90;1.50;;;11.70;99.90;;;;;;6271405;22;20023;-75
2023/10/20 11:01:56;;;;;;;1.88;1.00;;;11.70;99.90;;;;;;6272493;22;20409;-75
2023/10/20 11:04:22;;;;;;;1.80;1.40;;;11.70;99.90;;;;;;6272346;22;20079;-75
2023/10/20 11:06:48;;;;;;;1.48;1.38;;;11.70;99.90;;;;;;6272367;22;20011;-74
2023/10/20 11:09:19;;;;;;;2.05;1.33;;;11.70;99.90;;;;;;6272371;22;19996;-74
2023/10/20 11:11:48;;;;;;;1.92;1.48;;;11.70;99.90;;;;;;6272201;22;20078;-74
2023/10/20 11:14:21;;;;;;;1.67;1.08;;;11.70;99.90;;;;;;6271937;22;19999;-75
2023/10/20 11:16:47;;;;;;;1.40;1.20;;;11.70;99.90;;;;;;6272475;22;20053;-75
2023/10/20 11:19:14;;;;;;;2.58;1.23;;;11.70;99.90;;;;;;6272169;22;20003;-74
2023/10/20 11:21:43;;;;;;;1.77;1.33;;;11.60;99.90;;;;;;6245448;22;20090;-74
2023/10/20 11:24:09;;;;;;;1.75;1.08;;;11.70;99.90;;;;;;6272156;22;20421;-74
2023/10/20 11:26:35;;;;;;;2.00;1.52;;;11.60;99.90;;;;;;6272522;22;20022;-74
2023/10/20 11:29:07;;;;;;;1.83;1.55;;;11.60;99.90;;;;;;6271687;22;20014;-74
2023/10/20 11:31:34;;;;;;;1.83;1.13;;;11.60;99.90;;;;;;6272478;22;20015;-74
2023/10/20 11:34:00;;;;;;;1.80;1.55;;;11.70;99.90;;;;;;6271977;22;19996;-74
2023/10/20 11:36:26;;;;;;;2.15;1.35;;;11.60;99.90;;;;;;6271600;22;20007;-74
2023/10/20 11:38:51;;;;;;;2.15;1.75;;;11.70;99.90;;;;;;6271636;22;20019;-74
2023/10/20 11:41:17;;;;;;;1.83;1.55;;;11.70;99.90;;;;;;6272088;22;20417;-74
2023/10/20 11:43:42;;;;;;;1.95;1.42;;;11.70;99.90;;;;;;6271626;22;19999;-75
2023/10/20 11:46:11;;;;;;;3.45;1.70;;;11.70;99.90;;;;;;6272028;22;20011;-74
2023/10/20 11:48:36;;;;;;;1.98;1.02;;;11.80;99.90;;;;;;6272144;22;20002;-75
2023/10/20 11:51:02;;;;;;;2.90;2.05;;;11.80;99.90;;;;;;6271912;22;20046;-75
2023/10/20 11:53:28;;;;;;;1.88;1.60;;;11.80;99.90;;;;;;6272130;22;20130;-74
2023/10/20 11:55:54;;;;;;;1.77;1.63;;;11.90;99.90;;;;;;6272181;22;20305;-75
2023/10/20 11:58:19;;;;;;;1.88;1.40;;;11.90;99.90;;;;;;6271041;22;20006;-75
2023/10/20 12:00:46;;;;;;;3.38;1.52;;;11.90;99.90;;;;;;6271491;22;20004;-74
2023/10/20 12:03:11;;;;;;;1.73;1.45;;;11.90;99.90;;;;;;6271724;22;20045;-72
2023/10/20 12:05:37;;;;;;;1.95;1.30;;;11.90;99.90;;;;;;6272073;22;19999;-75
2023/10/20 12:08:04;;;;;;;1.58;1.20;;;12.00;99.90;;;;;;6244509;22;20003;-75
2023/10/20 12:10:33;;;;;;;1.52;1.30;;;11.90;99.90;;;;;;6272250;22;20072;-75
2023/10/20 12:13:02;;;;;;;1.50;1.17;;;11.90;99.90;;;;;;6271148;22;19999;-74
2023/10/20 12:15:30;;;;;;;1.35;1.15;;;12.00;99.90;;;;;;6272302;22;20000;-74
2023/10/20 12:17:56;;;;;;;1.75;1.35;;;12.00;99.90;;;;;;6271608;22;20020;-75
2023/10/20 12:20:21;;;;;;;1.88;1.10;;;12.00;99.90;;;;;;6271810;22;20456;-74
2023/10/20 12:22:47;;;;;;;1.35;1.15;;;12.00;99.90;;;;;;6271683;22;20923;-74
2023/10/20 12:25:12;;;;;;;2.15;1.15;;;12.00;99.90;;;;;;6271912;22;20007;-74
2023/10/20 12:27:38;;;;;;;1.48;1.23;;;11.90;99.90;;;;;;6271438;22;20296;-74
2023/10/20 12:30:04;;;;;;;1.83;0.88;;;11.90;99.90;;;;;;6271382;22;20333;-74
2023/10/20 12:32:30;;;;;;;1.50;1.20;;;11.90;99.90;;;;;;6271937;22;20325;-73
2023/10/20 12:34:55;;;;;;;1.38;1.25;;;11.80;99.90;;;;;;6271671;22;20023;-74
2023/10/20 12:37:21;;;;;;;1.30;1.17;;;11.90;99.90;;;;;;6271420;22;20508;-73
2023/10/20 12:39:46;;;;;;;1.40;1.20;;;11.80;99.90;;;;;;6271974;22;20003;-74
2023/10/20 12:42:12;;;;;;;1.63;1.23;;;11.80;99.90;;;;;;6243932;22;20004;-74
2023/10/20 12:44:38;;;;;;;1.85;1.42;;;11.80;99.90;;;;;;6271968;22;20007;-74
2023/10/20 12:47:05;;;;;;;1.40;1.30;;;11.80;99.90;;;;;;6271133;22;20074;-74
2023/10/20 12:49:31;;;;;;;1.60;1.10;;;11.80;99.90;;;;;;6270756;22;20368;-74
2023/10/20 12:51:57;;;;;;;2.08;1.23;;;11.80;99.90;;;;;;6271843;22;20054;-74
2023/10/20 12:54:23;;;;;;;1.88;1.50;;;11.70;99.90;;;;;;6243379;22;20036;-74
2023/10/20 12:56:48;;;;;;;1.30;0.85;;;11.70;99.90;;;;;;6271397;22;20089;-74
2023/10/20 12:59:14;;;;;;;1.80;1.17;;;11.80;99.90;;;;;;6244322;22;20079;-74
2023/10/20 13:01:40;;;;;;;0.95;0.77;;;11.70;99.90;;;;;;6270912;22;20000;-74
2023/10/20 13:04:07;;;;;;;1.27;0.85;;;11.70;99.90;;;;;;6271388;22;20000;-74
2023/10/20 13:06:32;;;;;;;1.67;1.00;;;11.70;99.90;;;;;;6268158;22;20083;-73
2023/10/20 13:08:58;;;;;;;1.42;0.90;;;11.80;99.90;;;;;;6269331;22;20034;-74